WELCOME TO Fly Ecuador Virtual

Fly Ecuador Virtual es una organización creada con el fin de brindar una plataforma que permita a los pilotos virtuales, principalmente ecuatorianos, tener un lugar donde registrar sus horas de vuelo, sus certificados de conocimiento adquiridos, las rutas que han volado y los destinos que han visitado. Así mismo, se busca ayudar a todos los pilotos a expandir su conocimiento sobre el mundo de la aviación real y virtual por medio de publicaciones, foros y cursos en línea.
A diferencia de las aerolíneas virtuales tradicionales, Fly Ecuador Virtual no simula las operaciones de una aerolínea del mundo real en específico. Un miembro de Fly Ecuador Virtual tiene toda la libertad de volar cualquier aeronave que opere en el espacio aéreo ecuatoriano real, en cualquier ruta, sea esta nacional o internacional, IFR o VFR, aeronaves monomotor, multimotor o helicópteros. Todo esto con el objetivo de expandir las operaciones virtuales dentro del espacio aéreo ecuatoriano, creando una comunidad en la que se compartan conocimientos y experiencias que beneficien a todos sus integrantes.
El crecimiento de Fly Ecuador Virtual depende de la participación conjunta de todos sus miembros, por este motivo se incentiva la participación en línea a través de los diferentes medios descritos más adelante en este sitio web.

STATISTICS

Pilots 61
Total hours: 4336.03
Flights total 1506

LATEST FLIGHTS

CallsignPilotDepartureArrivalDateFlight Time
ECU024Arturo CarvajalSEMTSEQM23-09-20170.62
ECU024Arturo CarvajalSECUSEGU21-09-20170.55
ECU024Arturo CarvajalSEGUSECU19-09-20170.41
ECU024Arturo CarvajalSKBOSEQM17-09-20171.05
ECU012Sebastian VallejoSPIMSEGU16-09-20171.51

NEWEST PILOTS

PilotJoined
ECU079-Vicente Torres13-07-2017
ECU077-Fernando Flores Valarezo06-07-2017
ECU078-Ricardo Guzman05-07-2017
ECU075-FREDDY RIVERA29-06-2017
ECU074-Emilio Mayhua28-06-2017

FUTURE EVENTS & METARS

EventDate
METAR
SEGU - José Joaquín de Olmedo International Airport, Guayaquil, ECU
Distance from station: N 0mi, 0km
Updated: Sun, 24-Sep-2017 3:00pm PDT
Mostly Cloudy
Mostly Cloudy
 Wind from SSE
Wind: SSE 10 mph , 17 km/h
Temperature: 84°F , 29°C
Heat Index: 88°F , 31°C
Dew Point: 70°F , 21°C
Humidity: 62%
Barometer: 29.77 inHg , 1008 hPa
Clouds: Mostly Cloudy
Visibility: 6 miles , 10 km
Cloud details: Few Clouds 2300 ft
Mostly Cloudy 30000 ft
2017/09/24 22:00 SEGU 242200Z 16009KT 9999 FEW023 BKN300 29/21 Q1008 NOSIG RMK A2977
 
SEQM - Aeropuerto Internacional Mariscal Sucre, ECU
Distance from station: NE 120mi, 200km
Updated: Sun, 24-Sep-2017 3:00pm PDT
Mostly Cloudy
Mostly Cloudy
 Wind from N
Wind: N 15 mph , 24 km/h
Temperature: 68°F , 20°C
Dew Point: 54°F , 12°C
Humidity: 60%
Barometer: 30.15 inHg , 1021 hPa
Clouds: Mostly Cloudy
Visibility: 6 miles , 10 km
Cloud details: Partly Cloudy 3000 ft
Mostly Cloudy 30000 ft
2017/09/24 22:00 SEQM 242200Z 36013KT 9999 SCT030 BKN300 20/12 Q1021 NOSIG RMK A3016
 
SECU - Mariscal Lamar Airpor, ECU
Distance from station: ENE 80mi, 120km
Updated: Sun, 24-Sep-2017 3:00pm PDT
Partly Cloudy
Partly Cloudy
 Wind from ENE
Wind: ENE 9 mph , 15 km/h
Temperature: 66°F , 19°C
Dew Point: 48°F , 9°C
Humidity: 52%
Barometer: 30.21 inHg , 1023 hPa
Clouds: Partly Cloudy
Visibility: 6 miles , 10 km
Cloud details: Partly Cloudy 4000 ft
2017/09/24 22:00 SECU 242200Z 06008KT 9999 SCT040 19/09 Q1023
 
SELT - Cotopaxi International Airport, ECU
Distance from station: NW 21mi, 34km
Updated: Sun, 24-Sep-2017 3:00pm PDT
Mostly Cloudy
Mostly Cloudy
 Wind from S
Wind: S 22 mph , 35 km/h
Temperature: 61°F , 16°C
Dew Point: 52°F , 11°C
Humidity: 72%
Barometer: 30.3 inHg , 1026 hPa
Clouds: Mostly Cloudy
Visibility: 6 miles , 10 km
Cloud details: Partly Cloudy 3000 ft
Mostly Cloudy 30000 ft
2017/09/24 22:00 SELT 242200Z 18019KT 9999 SCT030 BKN300 16/11 Q1026
 
SEMT - Eloy Alfaro International Airport, ECU
Distance from station: SSE 70mi, 100km
Updated: Sun, 24-Sep-2017 3:00pm PDT
Partly Cloudy
Partly Cloudy
 Wind from WNW
Wind: WNW 14 mph , 22 km/h
Temperature: 79°F , 26°C
Dew Point: 72°F , 22°C
Humidity: 79%
Barometer: 29.8 inHg , 1009 hPa
Clouds: Partly Cloudy
Visibility: 6 miles , 10 km
Cloud details: Partly Cloudy 2300 ft
2017/09/24 22:00 SEMT 242200Z 29012KT 9999 SCT023 26/22 Q1009 RMK A2981

Metar display script from Saratoga-Weather.org

TWEETS

NOTAMS

NOTAMDate